createdAt,value
2023-04-16T00:01:37.247Z,4.03
2023-04-16T00:05:01.520Z,3.95
2023-04-16T00:08:26.475Z,4.30
2023-04-16T00:11:48.119Z,4.32
2023-04-16T00:15:10.034Z,4.13
2023-04-16T00:18:33.686Z,4.00
2023-04-16T00:21:55.501Z,4.45
2023-04-16T00:25:17.146Z,3.90
2023-04-16T00:28:38.759Z,4.30
2023-04-16T00:32:03.253Z,4.85
2023-04-16T00:35:24.845Z,4.65
2023-04-16T00:38:46.445Z,4.50
2023-04-16T00:42:10.444Z,4.40
2023-04-16T00:45:32.244Z,4.55
2023-04-16T00:48:54.449Z,4.10
2023-04-16T00:52:18.317Z,4.35
2023-04-16T00:55:40.798Z,4.65
2023-04-16T00:59:02.519Z,4.88
2023-04-16T01:02:24.647Z,4.15
2023-04-16T01:05:49.453Z,3.92
2023-04-16T01:09:11.821Z,3.80
2023-04-16T01:12:33.413Z,4.90
2023-04-16T01:15:57.587Z,4.47
2023-04-16T01:19:19.416Z,4.50
2023-04-16T01:22:43.531Z,3.70
2023-04-16T01:26:05.160Z,3.95
2023-04-16T01:29:29.404Z,4.17
2023-04-16T01:32:51.618Z,3.67
2023-04-16T01:36:16.284Z,4.45
2023-04-16T01:39:37.974Z,4.40
2023-04-16T01:42:59.608Z,3.85
2023-04-16T01:46:29.627Z,4.07
2023-04-16T01:49:51.460Z,4.00
2023-04-16T01:53:13.058Z,3.45
2023-04-16T01:56:36.855Z,3.90
2023-04-16T01:59:58.513Z,3.95
2023-04-16T02:03:20.513Z,3.35
2023-04-16T02:06:44.687Z,3.60
2023-04-16T02:10:07.548Z,4.00
2023-04-16T02:13:29.152Z,4.18
2023-04-16T02:16:53.000Z,3.65
2023-04-16T02:20:17.757Z,3.97
2023-04-16T02:23:41.088Z,3.58
2023-04-16T02:27:07.570Z,4.00
2023-04-16T02:30:29.134Z,3.42
2023-04-16T02:33:51.050Z,3.67
2023-04-16T02:37:12.647Z,3.90
2023-04-16T02:40:34.679Z,3.67
2023-04-16T02:43:56.755Z,3.45
2023-04-16T02:47:18.372Z,3.80
2023-04-16T02:50:40.019Z,3.67
2023-04-16T02:54:03.118Z,2.75
2023-04-16T02:57:27.145Z,3.07
2023-04-16T03:00:50.993Z,3.03
2023-04-16T03:04:12.665Z,4.87
2023-04-16T03:07:36.668Z,3.07
2023-04-16T03:11:00.853Z,3.37
2023-04-16T03:14:22.514Z,2.73
2023-04-16T03:17:44.133Z,2.70
2023-04-16T03:21:06.001Z,3.40
2023-04-16T03:24:29.996Z,3.23
2023-04-16T03:27:51.668Z,2.77
2023-04-16T03:31:18.549Z,2.77
2023-04-16T03:34:40.593Z,8.20
2023-04-16T03:38:02.227Z,17.53
2023-04-16T03:41:23.965Z,7.47
2023-04-16T03:44:45.662Z,3.23
2023-04-16T03:48:07.342Z,3.10
2023-04-16T03:51:31.402Z,3.20
2023-04-16T03:54:53.014Z,3.10
2023-04-16T03:58:14.589Z,3.45
2023-04-16T04:01:38.493Z,2.90
2023-04-16T04:05:05.293Z,2.90
2023-04-16T04:08:27.020Z,2.80
2023-04-16T04:11:48.600Z,2.87
2023-04-16T04:15:10.954Z,2.57
2023-04-16T04:18:34.691Z,2.77
2023-04-16T04:21:56.381Z,2.65
2023-04-16T04:25:20.749Z,2.67
2023-04-16T04:28:42.375Z,2.73
2023-04-16T04:32:04.151Z,3.17
2023-04-16T04:35:28.343Z,3.20
2023-04-16T04:38:52.812Z,3.07
2023-04-16T04:42:20.162Z,2.70
2023-04-16T04:45:44.512Z,2.25
2023-04-16T04:49:08.764Z,2.50
2023-04-16T04:52:30.628Z,2.23
2023-04-16T04:55:54.198Z,3.10
2023-04-16T04:59:20.884Z,2.30
2023-04-16T05:02:42.758Z,2.22
2023-04-16T05:06:04.572Z,2.90
2023-04-16T05:09:28.404Z,2.50
2023-04-16T05:12:52.208Z,2.40
2023-04-16T05:16:16.408Z,2.85
2023-04-16T05:19:40.483Z,2.40
2023-04-16T05:23:06.592Z,2.22
2023-04-16T05:26:33.055Z,2.30
2023-04-16T05:29:54.634Z,2.50
2023-04-16T05:33:18.243Z,2.50
2023-04-16T05:36:39.895Z,2.75
2023-04-16T05:40:01.490Z,3.00
2023-04-16T05:43:24.514Z,2.22
2023-04-16T05:46:46.108Z,2.15
2023-04-16T05:50:10.635Z,2.63
2023-04-16T05:53:32.201Z,2.33
2023-04-16T05:56:53.806Z,2.33
2023-04-16T06:00:15.512Z,2.55
2023-04-16T06:03:37.201Z,2.33
2023-04-16T06:07:01.552Z,2.60
2023-04-16T06:10:25.777Z,2.28
2023-04-16T06:13:47.433Z,2.20
2023-04-16T06:17:09.032Z,2.33
2023-04-16T06:20:30.848Z,2.00
2023-04-16T06:23:52.606Z,1.80
2023-04-16T06:27:14.146Z,2.70
2023-04-16T06:30:39.071Z,2.10
2023-04-16T06:34:03.600Z,2.25
2023-04-16T06:37:25.429Z,2.20
2023-04-16T06:40:51.028Z,3.70
2023-04-16T06:44:15.035Z,2.50
2023-04-16T06:47:36.653Z,1.88
2023-04-16T06:50:58.341Z,2.47
2023-04-16T06:54:20.187Z,1.90
2023-04-16T06:57:44.258Z,2.20
2023-04-16T07:01:06.076Z,2.00
2023-04-16T07:04:29.743Z,2.03
2023-04-16T07:07:51.297Z,1.95
2023-04-16T07:11:13.521Z,1.83
2023-04-16T07:14:35.104Z,7.60
2023-04-16T07:17:56.762Z,2.20
2023-04-16T07:21:18.431Z,2.08
2023-04-16T07:24:40.085Z,1.80
2023-04-16T07:28:04.205Z,1.80
2023-04-16T07:31:28.069Z,1.60
2023-04-16T07:34:49.652Z,1.67
2023-04-16T07:38:11.364Z,1.60
2023-04-16T07:41:33.453Z,1.90
2023-04-16T07:44:55.459Z,1.65
2023-04-16T07:48:19.494Z,1.70
2023-04-16T07:51:46.977Z,1.70
2023-04-16T07:55:09.323Z,1.63
2023-04-16T07:58:33.028Z,1.73
2023-04-16T08:01:56.901Z,1.80
2023-04-16T08:05:18.661Z,1.30
2023-04-16T08:08:42.805Z,1.80
2023-04-16T08:12:04.697Z,1.70
2023-04-16T08:15:26.639Z,1.67
2023-04-16T08:18:51.016Z,1.67
2023-04-16T08:22:13.538Z,1.20
2023-04-16T08:25:38.425Z,2.00
2023-04-16T08:28:59.997Z,1.58
2023-04-16T08:32:24.713Z,1.70
2023-04-16T08:35:46.317Z,1.30
2023-04-16T08:39:10.929Z,1.75
2023-04-16T08:42:38.912Z,1.40
2023-04-16T08:46:01.412Z,1.50
2023-04-16T08:49:26.996Z,1.40
2023-04-16T08:53:03.975Z,1.92
2023-04-16T08:56:26.597Z,1.80
2023-04-16T08:59:48.810Z,1.50
2023-04-16T09:03:12.966Z,1.60
2023-04-16T09:06:36.523Z,1.58
2023-04-16T09:10:00.072Z,1.70
2023-04-16T09:13:24.890Z,1.52
2023-04-16T09:16:49.525Z,3.15
2023-04-16T09:20:11.346Z,1.48
2023-04-16T09:23:38.452Z,1.30
2023-04-16T09:27:01.086Z,1.00
2023-04-16T09:30:24.167Z,1.50
2023-04-16T09:34:09.082Z,1.30
2023-04-16T09:37:33.724Z,1.30
2023-04-16T09:41:08.644Z,1.38
2023-04-16T09:44:38.513Z,1.50
2023-04-16T09:48:05.189Z,1.20
2023-04-16T09:51:37.340Z,1.23
2023-04-16T09:55:00.192Z,1.30
2023-04-16T09:58:24.676Z,1.35
2023-04-16T10:01:57.333Z,1.50
2023-04-16T10:05:35.123Z,1.10
2023-04-16T10:08:57.278Z,1.30
2023-04-16T10:12:21.988Z,2.05
2023-04-16T10:15:48.371Z,1.20
2023-04-16T10:19:10.421Z,1.25
2023-04-16T10:22:34.963Z,1.00
2023-04-16T10:25:58.378Z,0.90
2023-04-16T10:29:21.343Z,1.00
2023-04-16T10:32:46.490Z,0.77
2023-04-16T10:36:19.020Z,0.73
2023-04-16T10:39:40.705Z,0.80
2023-04-16T10:43:07.192Z,0.60
2023-04-16T10:46:39.086Z,0.60
2023-04-16T10:50:19.446Z,0.60
2023-04-16T10:53:41.197Z,0.82
2023-04-16T10:57:16.320Z,0.80
2023-04-16T11:00:52.747Z,0.90
2023-04-16T11:04:20.301Z,0.80
2023-04-16T11:07:49.611Z,1.02
2023-04-16T11:11:12.242Z,3.95
2023-04-16T11:14:33.975Z,1.10
2023-04-16T11:17:58.011Z,0.68
2023-04-16T11:21:20.118Z,0.80
2023-04-16T11:24:41.769Z,0.75
2023-04-16T11:28:05.388Z,0.80
2023-04-16T11:31:27.439Z,0.80
2023-04-16T11:34:49.154Z,0.73
2023-04-16T11:38:13.060Z,0.68
2023-04-16T11:41:34.656Z,0.80
2023-04-16T11:45:00.639Z,1.02
2023-04-16T11:48:22.274Z,0.75
2023-04-16T11:51:47.557Z,0.90
2023-04-16T11:55:09.300Z,0.93
2023-04-16T11:58:33.129Z,0.88
2023-04-16T12:02:00.851Z,0.52
2023-04-16T12:05:35.376Z,0.80
2023-04-16T12:08:56.956Z,0.50
2023-04-16T12:12:34.853Z,0.60
2023-04-16T12:15:57.190Z,1.15
2023-04-16T12:19:18.924Z,0.80
2023-04-16T12:22:44.591Z,0.50
2023-04-16T12:26:12.545Z,0.82
2023-04-16T12:29:34.202Z,1.00
2023-04-16T12:33:16.599Z,0.70
2023-04-16T12:36:43.397Z,0.82
2023-04-16T12:40:06.283Z,0.90
2023-04-16T12:43:30.191Z,0.70
2023-04-16T12:46:54.161Z,3.83
2023-04-16T12:50:15.706Z,0.80
2023-04-16T12:53:39.514Z,0.57
2023-04-16T12:57:03.578Z,0.40
2023-04-16T13:00:25.497Z,0.60
2023-04-16T13:03:49.847Z,0.50
2023-04-16T13:07:11.587Z,0.60
2023-04-16T13:10:33.268Z,0.80
2023-04-16T13:13:54.953Z,0.45
2023-04-16T13:17:16.539Z,0.60
2023-04-16T13:20:41.570Z,0.45
2023-04-16T13:24:03.390Z,0.57
2023-04-16T13:27:27.184Z,0.75
2023-04-16T13:30:48.897Z,1.00
2023-04-16T13:34:10.774Z,1.20
2023-04-16T13:37:32.425Z,0.68
2023-04-16T13:40:54.094Z,0.90
2023-04-16T13:44:15.658Z,0.50
2023-04-16T13:47:41.623Z,1.00
2023-04-16T13:51:06.124Z,3.15
2023-04-16T13:54:30.028Z,1.20
2023-04-16T13:57:53.321Z,0.55
2023-04-16T14:01:15.037Z,0.73
2023-04-16T14:04:36.746Z,0.50
2023-04-16T14:07:58.325Z,0.90
2023-04-16T14:11:19.876Z,0.55
2023-04-16T14:14:42.163Z,0.60
2023-04-16T14:18:04.118Z,0.50
2023-04-16T14:21:27.059Z,0.30
2023-04-16T14:24:48.614Z,0.75
2023-04-16T14:28:10.716Z,0.60
2023-04-16T14:31:35.048Z,0.40
2023-04-16T14:34:57.405Z,0.40
2023-04-16T14:38:19.034Z,0.70
2023-04-16T14:41:41.211Z,0.35
2023-04-16T14:45:06.358Z,0.60
2023-04-16T14:48:28.247Z,0.32
2023-04-16T14:51:49.917Z,0.40
2023-04-16T14:55:11.556Z,0.50
2023-04-16T14:58:33.155Z,0.52
2023-04-16T15:01:56.880Z,0.40
2023-04-16T15:05:20.922Z,0.52
2023-04-16T15:08:47.571Z,0.63
2023-04-16T15:12:09.272Z,2.55
2023-04-16T15:15:33.430Z,0.75
2023-04-16T15:18:57.840Z,0.40
2023-04-16T15:22:19.475Z,0.68
2023-04-16T15:25:45.638Z,0.50
2023-04-16T15:29:09.561Z,0.45
2023-04-16T15:32:33.558Z,0.73
2023-04-16T15:35:59.673Z,1.00
2023-04-16T15:39:21.689Z,1.00
2023-04-16T15:42:43.455Z,0.73
2023-04-16T15:46:05.243Z,0.85
2023-04-16T15:49:27.108Z,0.80
2023-04-16T15:52:48.828Z,0.93
2023-04-16T15:56:10.612Z,0.80
2023-04-16T15:59:32.775Z,0.60
2023-04-16T16:02:54.553Z,1.08
2023-04-16T16:06:20.821Z,2.20
2023-04-16T16:09:42.824Z,1.00
2023-04-16T16:13:07.996Z,1.20
2023-04-16T16:16:29.678Z,0.82
2023-04-16T16:19:52.411Z,0.65
2023-04-16T16:23:14.004Z,0.57
2023-04-16T16:26:35.563Z,1.10
2023-04-16T16:29:57.244Z,0.95
2023-04-16T16:33:22.327Z,0.80
2023-04-16T16:36:48.719Z,1.02
2023-04-16T16:40:13.075Z,0.57
2023-04-16T16:43:37.692Z,0.70
2023-04-16T16:46:59.692Z,0.80
2023-04-16T16:50:24.025Z,0.80
2023-04-16T16:53:48.489Z,1.58
2023-04-16T16:57:10.152Z,0.60
2023-04-16T17:00:31.887Z,0.68
2023-04-16T17:03:53.956Z,0.70
2023-04-16T17:07:15.750Z,0.70
2023-04-16T17:10:40.045Z,0.70
2023-04-16T17:14:04.044Z,1.00
2023-04-16T17:17:28.912Z,0.70
2023-04-16T17:20:50.515Z,0.43
2023-04-16T17:24:12.438Z,0.45
2023-04-16T17:27:34.456Z,0.80
2023-04-16T17:31:01.703Z,0.80
2023-04-16T17:34:23.871Z,0.70
2023-04-16T17:37:47.552Z,0.77
2023-04-16T17:41:11.555Z,0.63
2023-04-16T17:44:35.233Z,0.73
2023-04-16T17:47:56.846Z,0.75
2023-04-16T17:51:21.134Z,0.90
2023-04-16T17:54:48.404Z,0.63
2023-04-16T17:58:10.133Z,0.80
2023-04-16T18:01:34.317Z,0.80
2023-04-16T18:04:58.805Z,1.00
2023-04-16T18:08:23.180Z,1.00
2023-04-16T18:11:45.250Z,1.20
2023-04-16T18:15:10.081Z,1.25
2023-04-16T18:18:34.312Z,1.40
2023-04-16T18:22:01.493Z,1.08
2023-04-16T18:25:32.230Z,1.65
2023-04-16T18:28:56.506Z,1.40
2023-04-16T18:32:21.770Z,2.08
2023-04-16T18:35:43.414Z,1.90
2023-04-16T18:39:05.015Z,1.23
2023-04-16T18:42:29.327Z,1.23
2023-04-16T18:45:51.334Z,1.20
2023-04-16T18:49:13.383Z,1.02
2023-04-16T18:52:35.881Z,1.08
2023-04-16T18:55:59.916Z,1.30
2023-04-16T18:59:21.860Z,1.20
2023-04-16T19:02:45.825Z,1.40
2023-04-16T19:06:07.805Z,1.48
2023-04-16T19:09:32.496Z,1.40
2023-04-16T19:12:57.376Z,1.05
2023-04-16T19:16:21.125Z,0.93
2023-04-16T19:19:47.362Z,1.20
2023-04-16T19:23:09.264Z,1.50
2023-04-16T19:26:31.063Z,1.80
2023-04-16T19:29:52.899Z,1.30
2023-04-16T19:33:14.565Z,1.30
2023-04-16T19:36:36.211Z,1.75
2023-04-16T19:39:57.832Z,1.42
2023-04-16T19:43:19.491Z,1.50
2023-04-16T19:46:41.208Z,1.55
2023-04-16T19:50:03.005Z,1.38
2023-04-16T19:53:25.168Z,1.30
2023-04-16T19:56:49.311Z,1.58
2023-04-16T20:00:18.153Z,1.52
2023-04-16T20:03:39.833Z,1.65
2023-04-16T20:07:01.486Z,1.65
2023-04-16T20:10:23.646Z,1.30
2023-04-16T20:13:48.808Z,1.85
2023-04-16T20:17:10.506Z,1.48
2023-04-16T20:20:35.689Z,1.20
2023-04-16T20:23:59.411Z,1.23
2023-04-16T20:27:26.024Z,1.50
2023-04-16T20:30:51.019Z,1.50
2023-04-16T20:34:12.870Z,1.40
2023-04-16T20:37:38.065Z,1.40
2023-04-16T20:41:10.404Z,1.40
2023-04-16T20:44:40.462Z,1.50
2023-04-16T20:48:02.459Z,1.80
2023-04-16T20:51:27.530Z,6.40
2023-04-16T20:54:52.236Z,11.18
2023-04-16T20:58:13.787Z,2.92
2023-04-16T21:01:35.557Z,1.10
2023-04-16T21:04:59.508Z,1.58
2023-04-16T21:08:24.890Z,1.25
2023-04-16T21:11:48.707Z,1.33
2023-04-16T21:15:13.113Z,1.70
2023-04-16T21:18:37.040Z,1.27
2023-04-16T21:21:58.628Z,1.58
2023-04-16T21:25:22.248Z,1.20
2023-04-16T21:28:43.857Z,1.10
2023-04-16T21:32:07.697Z,1.40
2023-04-16T21:35:34.080Z,1.45
2023-04-16T21:38:55.856Z,0.88
2023-04-16T21:42:17.498Z,1.15
2023-04-16T21:45:39.809Z,1.30
2023-04-16T21:49:01.452Z,1.17
2023-04-16T21:52:23.026Z,1.17
2023-04-16T21:55:44.772Z,0.80
2023-04-16T21:59:08.943Z,0.88
2023-04-16T22:02:34.101Z,0.98
2023-04-16T22:06:06.636Z,1.10
2023-04-16T22:09:28.231Z,0.88
2023-04-16T22:12:54.836Z,1.02
2023-04-16T22:16:19.247Z,0.80
2023-04-16T22:19:42.420Z,1.00
2023-04-16T22:23:04.005Z,0.93
2023-04-16T22:26:27.622Z,1.10
2023-04-16T22:29:51.514Z,9.38
2023-04-16T22:33:15.673Z,3.28
2023-04-16T22:36:39.908Z,1.20
2023-04-16T22:40:01.836Z,1.10
2023-04-16T22:43:25.804Z,1.10
2023-04-16T22:46:49.605Z,0.90
2023-04-16T22:50:13.592Z,1.00
2023-04-16T22:53:35.930Z,1.38
2023-04-16T22:56:58.430Z,1.17
2023-04-16T23:00:20.845Z,1.65
2023-04-16T23:03:42.486Z,1.10
2023-04-16T23:07:04.191Z,1.25
2023-04-16T23:10:25.961Z,1.00
2023-04-16T23:13:50.070Z,1.08
2023-04-16T23:17:16.967Z,1.17
2023-04-16T23:20:38.637Z,1.27
2023-04-16T23:24:00.246Z,0.90
2023-04-16T23:27:24.310Z,1.00
2023-04-16T23:30:48.882Z,1.10
2023-04-16T23:34:10.575Z,0.80
2023-04-16T23:37:34.941Z,0.90
2023-04-16T23:40:56.545Z,0.80
2023-04-16T23:44:18.168Z,0.68
2023-04-16T23:47:44.789Z,1.02
2023-04-16T23:51:06.534Z,0.98
2023-04-16T23:54:28.145Z,1.00
2023-04-16T23:57:50.103Z,0.70
